Terminal Aerodrome Forecast
Issued by NWS

Home | Current Version | Previous Version | Text Only | Print | Product List | Glossary On
Versions: 1 2 3 4 5 6 7 8 9 10 11 12 13 14 15 16 17 18 19 20 21 22
661
FTUS42 KGSP 251137
TAFGMU
TAF
KGMU 251137Z 2512/2612 22007KT P6SM SCT050 BKN080
     FM251330 24010KT P6SM BKN025
     FM251500 24011G20KT P6SM SCT050 BKN140
     FM251700 24013G22KT P6SM SCT200
     FM260000 29012G19KT P6SM SKC
     FM260300 30008KT P6SM SKC
     FM260700 33004KT P6SM SKC=

USA.gov is the U.S. government's official web portal to all federal, state and local government web resources and services.